Terminal Aerodrome Forecast
Issued by NWS

Home | Current Version | Previous Version | Text Only | Print | Product List | Glossary On
Versions: 1 2 3 4 5 6 7 8 9 10 11 12
627
FTUS42 KTAE 290540
TAFABY
TAF
KABY 290540Z 2906/3006 00000KT P6SM SCT080 BKN250
     FM291500 36007KT P6SM SCT070
     FM300100 00000KT P6SM SCT070 SCT250=

USA.gov is the U.S. government's official web portal to all federal, state and local government web resources and services.